sensor_id;sensor_type;location;lat;lon;timestamp;P1;durP1;ratioP1;P2;durP2;ratioP2
11058;SDS011;5582;59.272;15.220;2022-08-20T00:02:22;10.13;;;9.13;;
11058;SDS011;5582;59.272;15.220;2022-08-20T00:04:49;11.53;;;9.30;;
11058;SDS011;5582;59.272;15.220;2022-08-20T00:07:14;9.77;;;8.70;;
11058;SDS011;5582;59.272;15.220;2022-08-20T00:09:41;12.23;;;9.47;;
11058;SDS011;5582;59.272;15.220;2022-08-20T00:12:07;10.53;;;9.40;;
11058;SDS011;5582;59.272;15.220;2022-08-20T00:14:35;9.90;;;9.10;;
11058;SDS011;5582;59.272;15.220;2022-08-20T00:17:02;9.33;;;7.63;;
11058;SDS011;5582;59.272;15.220;2022-08-20T00:19:28;9.33;;;8.40;;
11058;SDS011;5582;59.272;15.220;2022-08-20T00:21:54;9.10;;;8.20;;
11058;SDS011;5582;59.272;15.220;2022-08-20T00:24:21;9.43;;;8.57;;
11058;SDS011;5582;59.272;15.220;2022-08-20T00:26:47;9.47;;;8.63;;
11058;SDS011;5582;59.272;15.220;2022-08-20T00:29:13;9.27;;;8.53;;
11058;SDS011;5582;59.272;15.220;2022-08-20T00:31:40;8.73;;;7.80;;
11058;SDS011;5582;59.272;15.220;2022-08-20T00:34:06;9.13;;;8.10;;
11058;SDS011;5582;59.272;15.220;2022-08-20T00:36:31;9.87;;;8.57;;
11058;SDS011;5582;59.272;15.220;2022-08-20T00:38:57;9.53;;;8.40;;
11058;SDS011;5582;59.272;15.220;2022-08-20T00:41:24;9.10;;;8.07;;
11058;SDS011;5582;59.272;15.220;2022-08-20T00:43:52;9.47;;;8.53;;
11058;SDS011;5582;59.272;15.220;2022-08-20T00:46:33;8.77;;;7.90;;
11058;SDS011;5582;59.272;15.220;2022-08-20T00:48:59;10.80;;;9.70;;
11058;SDS011;5582;59.272;15.220;2022-08-20T00:54:04;7.93;;;7.30;;
11058;SDS011;5582;59.272;15.220;2022-08-20T00:56:35;8.67;;;7.93;;
11058;SDS011;5582;59.272;15.220;2022-08-20T00:59:02;9.27;;;8.23;;
11058;SDS011;5582;59.272;15.220;2022-08-20T01:01:36;7.73;;;7.13;;
11058;SDS011;5582;59.272;15.220;2022-08-20T01:04:06;11.73;;;8.73;;
11058;SDS011;5582;59.272;15.220;2022-08-20T01:06:32;8.17;;;7.47;;
11058;SDS011;5582;59.272;15.220;2022-08-20T01:08:57;9.03;;;8.33;;
11058;SDS011;5582;59.272;15.220;2022-08-20T01:11:26;8.67;;;7.77;;
11058;SDS011;5582;59.272;15.220;2022-08-20T01:14:04;9.70;;;8.80;;
11058;SDS011;5582;59.272;15.220;2022-08-20T01:16:54;8.00;;;7.33;;
11058;SDS011;5582;59.272;15.220;2022-08-20T01:19:28;8.90;;;7.23;;
11058;SDS011;5582;59.272;15.220;2022-08-20T01:21:59;8.00;;;6.93;;
11058;SDS011;5582;59.272;15.220;2022-08-20T01:24:29;8.57;;;7.70;;
11058;SDS011;5582;59.272;15.220;2022-08-20T01:27:00;8.00;;;7.03;;
11058;SDS011;5582;59.272;15.220;2022-08-20T01:29:30;9.00;;;7.47;;
11058;SDS011;5582;59.272;15.220;2022-08-20T01:32:01;8.90;;;8.07;;
11058;SDS011;5582;59.272;15.220;2022-08-20T01:34:27;9.50;;;8.53;;
11058;SDS011;5582;59.272;15.220;2022-08-20T01:36:54;8.20;;;7.40;;
11058;SDS011;5582;59.272;15.220;2022-08-20T01:39:26;9.67;;;8.10;;
11058;SDS011;5582;59.272;15.220;2022-08-20T01:44:37;7.83;;;7.07;;
11058;SDS011;5582;59.272;15.220;2022-08-20T01:47:12;8.53;;;7.77;;
11058;SDS011;5582;59.272;15.220;2022-08-20T01:49:39;11.90;;;7.40;;
11058;SDS011;5582;59.272;15.220;2022-08-20T01:52:08;7.77;;;6.93;;
11058;SDS011;5582;59.272;15.220;2022-08-20T01:54:37;8.20;;;7.40;;
11058;SDS011;5582;59.272;15.220;2022-08-20T01:57:14;8.40;;;7.60;;
11058;SDS011;5582;59.272;15.220;2022-08-20T01:59:41;7.97;;;7.27;;
11058;SDS011;5582;59.272;15.220;2022-08-20T02:02:08;7.40;;;6.70;;
11058;SDS011;5582;59.272;15.220;2022-08-20T02:04:37;8.07;;;7.13;;
11058;SDS011;5582;59.272;15.220;2022-08-20T02:07:04;7.17;;;6.67;;
11058;SDS011;5582;59.272;15.220;2022-08-20T02:09:36;7.80;;;7.10;;
11058;SDS011;5582;59.272;15.220;2022-08-20T02:12:03;7.90;;;7.23;;
11058;SDS011;5582;59.272;15.220;2022-08-20T02:14:31;6.97;;;6.33;;
11058;SDS011;5582;59.272;15.220;2022-08-20T02:17:00;7.43;;;6.83;;
11058;SDS011;5582;59.272;15.220;2022-08-20T02:19:28;8.57;;;7.77;;
11058;SDS011;5582;59.272;15.220;2022-08-20T02:22:01;7.60;;;6.90;;
11058;SDS011;5582;59.272;15.220;2022-08-20T02:24:30;7.90;;;7.17;;
11058;SDS011;5582;59.272;15.220;2022-08-20T02:26:56;8.27;;;7.43;;
11058;SDS011;5582;59.272;15.220;2022-08-20T02:29:22;8.40;;;7.27;;
11058;SDS011;5582;59.272;15.220;2022-08-20T02:31:47;8.63;;;7.87;;
11058;SDS011;5582;59.272;15.220;2022-08-20T02:34:13;9.10;;;8.03;;
11058;SDS011;5582;59.272;15.220;2022-08-20T02:36:40;7.73;;;7.03;;
11058;SDS011;5582;59.272;15.220;2022-08-20T02:39:09;9.40;;;8.43;;
11058;SDS011;5582;59.272;15.220;2022-08-20T02:41:36;8.57;;;7.80;;
11058;SDS011;5582;59.272;15.220;2022-08-20T02:44:03;9.07;;;8.20;;
11058;SDS011;5582;59.272;15.220;2022-08-20T02:46:30;8.67;;;7.20;;
11058;SDS011;5582;59.272;15.220;2022-08-20T02:48:56;8.70;;;8.00;;
11058;SDS011;5582;59.272;15.220;2022-08-20T02:51:23;9.50;;;8.53;;
11058;SDS011;5582;59.272;15.220;2022-08-20T02:53:49;9.57;;;8.47;;
11058;SDS011;5582;59.272;15.220;2022-08-20T02:56:16;9.37;;;8.33;;
11058;SDS011;5582;59.272;15.220;2022-08-20T02:58:42;9.93;;;9.03;;
11058;SDS011;5582;59.272;15.220;2022-08-20T03:01:10;9.73;;;8.73;;
11058;SDS011;5582;59.272;15.220;2022-08-20T03:03:39;9.80;;;9.00;;
11058;SDS011;5582;59.272;15.220;2022-08-20T03:06:06;9.33;;;8.53;;
11058;SDS011;5582;59.272;15.220;2022-08-20T03:08:34;10.40;;;9.43;;
11058;SDS011;5582;59.272;15.220;2022-08-20T03:11:00;9.97;;;9.07;;
11058;SDS011;5582;59.272;15.220;2022-08-20T03:13:26;9.33;;;8.50;;
11058;SDS011;5582;59.272;15.220;2022-08-20T03:15:52;10.37;;;9.37;;
11058;SDS011;5582;59.272;15.220;2022-08-20T03:18:21;9.70;;;8.87;;
11058;SDS011;5582;59.272;15.220;2022-08-20T03:20:48;12.43;;;11.30;;
11058;SDS011;5582;59.272;15.220;2022-08-20T03:23:14;12.90;;;11.50;;
11058;SDS011;5582;59.272;15.220;2022-08-20T03:25:43;13.20;;;11.47;;
11058;SDS011;5582;59.272;15.220;2022-08-20T03:28:09;13.43;;;11.80;;
11058;SDS011;5582;59.272;15.220;2022-08-20T03:30:35;12.70;;;11.40;;
11058;SDS011;5582;59.272;15.220;2022-08-20T03:33:01;15.50;;;11.67;;
11058;SDS011;5582;59.272;15.220;2022-08-20T03:35:27;11.67;;;10.60;;
11058;SDS011;5582;59.272;15.220;2022-08-20T03:37:55;12.03;;;10.90;;
11058;SDS011;5582;59.272;15.220;2022-08-20T03:40:26;11.37;;;10.37;;
11058;SDS011;5582;59.272;15.220;2022-08-20T03:42:55;11.97;;;10.77;;
11058;SDS011;5582;59.272;15.220;2022-08-20T03:45:21;13.57;;;10.57;;
11058;SDS011;5582;59.272;15.220;2022-08-20T03:47:48;11.20;;;10.30;;
11058;SDS011;5582;59.272;15.220;2022-08-20T03:50:14;11.93;;;10.53;;
11058;SDS011;5582;59.272;15.220;2022-08-20T03:52:42;10.70;;;9.70;;
11058;SDS011;5582;59.272;15.220;2022-08-20T03:55:07;11.37;;;10.27;;
11058;SDS011;5582;59.272;15.220;2022-08-20T03:57:34;11.30;;;10.30;;
11058;SDS011;5582;59.272;15.220;2022-08-20T04:00:00;10.97;;;9.87;;
11058;SDS011;5582;59.272;15.220;2022-08-20T04:02:26;10.17;;;9.20;;
11058;SDS011;5582;59.272;15.220;2022-08-20T04:04:52;10.43;;;9.47;;
11058;SDS011;5582;59.272;15.220;2022-08-20T04:07:20;10.87;;;9.97;;
11058;SDS011;5582;59.272;15.220;2022-08-20T04:09:52;12.67;;;11.37;;
11058;SDS011;5582;59.272;15.220;2022-08-20T04:12:19;10.87;;;9.97;;
11058;SDS011;5582;59.272;15.220;2022-08-20T04:14:46;12.17;;;11.10;;
11058;SDS011;5582;59.272;15.220;2022-08-20T04:17:12;10.10;;;9.30;;
11058;SDS011;5582;59.272;15.220;2022-08-20T04:19:38;10.47;;;9.67;;
11058;SDS011;5582;59.272;15.220;2022-08-20T04:22:04;10.63;;;9.63;;
11058;SDS011;5582;59.272;15.220;2022-08-20T04:24:32;11.03;;;9.93;;
11058;SDS011;5582;59.272;15.220;2022-08-20T04:26:58;10.63;;;9.37;;
11058;SDS011;5582;59.272;15.220;2022-08-20T04:29:26;10.50;;;9.53;;
11058;SDS011;5582;59.272;15.220;2022-08-20T04:31:52;10.40;;;9.43;;
11058;SDS011;5582;59.272;15.220;2022-08-20T04:34:18;10.17;;;9.17;;
11058;SDS011;5582;59.272;15.220;2022-08-20T04:36:44;10.87;;;9.97;;
11058;SDS011;5582;59.272;15.220;2022-08-20T04:39:12;11.93;;;10.63;;
11058;SDS011;5582;59.272;15.220;2022-08-20T04:41:41;10.40;;;9.57;;
11058;SDS011;5582;59.272;15.220;2022-08-20T04:44:07;11.03;;;9.80;;
11058;SDS011;5582;59.272;15.220;2022-08-20T04:46:35;10.90;;;9.90;;
11058;SDS011;5582;59.272;15.220;2022-08-20T04:49:02;11.73;;;10.63;;
11058;SDS011;5582;59.272;15.220;2022-08-20T04:51:29;11.23;;;10.23;;
11058;SDS011;5582;59.272;15.220;2022-08-20T04:53:55;10.77;;;9.70;;
11058;SDS011;5582;59.272;15.220;2022-08-20T04:56:22;11.57;;;10.50;;
11058;SDS011;5582;59.272;15.220;2022-08-20T04:58:50;11.80;;;10.70;;
11058;SDS011;5582;59.272;15.220;2022-08-20T05:01:16;12.27;;;10.67;;
11058;SDS011;5582;59.272;15.220;2022-08-20T05:03:42;11.77;;;10.63;;
11058;SDS011;5582;59.272;15.220;2022-08-20T05:06:10;10.53;;;9.63;;
11058;SDS011;5582;59.272;15.220;2022-08-20T05:08:36;11.83;;;10.70;;
11058;SDS011;5582;59.272;15.220;2022-08-20T05:11:02;12.57;;;11.27;;
11058;SDS011;5582;59.272;15.220;2022-08-20T05:13:29;13.97;;;11.00;;
11058;SDS011;5582;59.272;15.220;2022-08-20T05:15:55;13.43;;;11.60;;
11058;SDS011;5582;59.272;15.220;2022-08-20T05:18:25;13.50;;;10.77;;
11058;SDS011;5582;59.272;15.220;2022-08-20T05:20:51;12.57;;;10.40;;
11058;SDS011;5582;59.272;15.220;2022-08-20T05:23:18;20.03;;;11.60;;
11058;SDS011;5582;59.272;15.220;2022-08-20T05:25:45;15.57;;;11.50;;
11058;SDS011;5582;59.272;15.220;2022-08-20T05:28:18;15.23;;;11.70;;
11058;SDS011;5582;59.272;15.220;2022-08-20T05:30:50;16.50;;;12.50;;
11058;SDS011;5582;59.272;15.220;2022-08-20T05:33:17;12.50;;;10.63;;
11058;SDS011;5582;59.272;15.220;2022-08-20T05:35:45;15.93;;;11.27;;
11058;SDS011;5582;59.272;15.220;2022-08-20T05:38:14;16.87;;;12.20;;
11058;SDS011;5582;59.272;15.220;2022-08-20T05:40:42;14.57;;;12.67;;
11058;SDS011;5582;59.272;15.220;2022-08-20T05:43:09;14.03;;;12.23;;
11058;SDS011;5582;59.272;15.220;2022-08-20T05:45:35;20.57;;;12.80;;
11058;SDS011;5582;59.272;15.220;2022-08-20T05:48:03;20.07;;;13.80;;
11058;SDS011;5582;59.272;15.220;2022-08-20T05:50:31;19.00;;;13.77;;
11058;SDS011;5582;59.272;15.220;2022-08-20T05:52:57;20.50;;;16.27;;
11058;SDS011;5582;59.272;15.220;2022-08-20T05:55:23;18.97;;;14.70;;
11058;SDS011;5582;59.272;15.220;2022-08-20T05:57:49;19.27;;;16.43;;
11058;SDS011;5582;59.272;15.220;2022-08-20T06:00:20;22.10;;;16.30;;
11058;SDS011;5582;59.272;15.220;2022-08-20T06:02:46;25.73;;;16.63;;
11058;SDS011;5582;59.272;15.220;2022-08-20T06:05:30;26.77;;;17.30;;
11058;SDS011;5582;59.272;15.220;2022-08-20T06:07:56;25.73;;;18.43;;
11058;SDS011;5582;59.272;15.220;2022-08-20T06:10:21;21.00;;;16.20;;
11058;SDS011;5582;59.272;15.220;2022-08-20T06:12:47;16.93;;;14.63;;
11058;SDS011;5582;59.272;15.220;2022-08-20T06:15:12;16.77;;;15.07;;
11058;SDS011;5582;59.272;15.220;2022-08-20T06:17:38;17.80;;;14.47;;
11058;SDS011;5582;59.272;15.220;2022-08-20T06:20:05;21.37;;;17.67;;
11058;SDS011;5582;59.272;15.220;2022-08-20T06:22:33;18.97;;;16.87;;
11058;SDS011;5582;59.272;15.220;2022-08-20T06:24:59;16.90;;;14.53;;
11058;SDS011;5582;59.272;15.220;2022-08-20T06:27:25;16.90;;;15.13;;
11058;SDS011;5582;59.272;15.220;2022-08-20T06:29:52;18.10;;;15.67;;
11058;SDS011;5582;59.272;15.220;2022-08-20T06:32:18;16.77;;;14.97;;
11058;SDS011;5582;59.272;15.220;2022-08-20T06:34:45;17.00;;;15.17;;
11058;SDS011;5582;59.272;15.220;2022-08-20T06:37:14;14.30;;;12.87;;
11058;SDS011;5582;59.272;15.220;2022-08-20T06:39:42;15.80;;;14.10;;
11058;SDS011;5582;59.272;15.220;2022-08-20T06:42:08;17.63;;;13.87;;
11058;SDS011;5582;59.272;15.220;2022-08-20T06:44:33;16.70;;;15.00;;
11058;SDS011;5582;59.272;15.220;2022-08-20T06:47:01;17.33;;;15.47;;
11058;SDS011;5582;59.272;15.220;2022-08-20T06:49:29;16.60;;;15.00;;
11058;SDS011;5582;59.272;15.220;2022-08-20T06:51:55;17.57;;;14.53;;
11058;SDS011;5582;59.272;15.220;2022-08-20T06:54:21;15.50;;;13.97;;
11058;SDS011;5582;59.272;15.220;2022-08-20T06:56:47;17.67;;;14.97;;
11058;SDS011;5582;59.272;15.220;2022-08-20T06:59:13;16.50;;;14.60;;
11058;SDS011;5582;59.272;15.220;2022-08-20T10:02:35;7.23;;;6.10;;
11058;SDS011;5582;59.272;15.220;2022-08-20T10:05:01;6.47;;;5.97;;
11058;SDS011;5582;59.272;15.220;2022-08-20T10:07:26;5.93;;;5.43;;
11058;SDS011;5582;59.272;15.220;2022-08-20T10:09:52;6.30;;;5.67;;
11058;SDS011;5582;59.272;15.220;2022-08-20T10:12:17;7.13;;;6.50;;
11058;SDS011;5582;59.272;15.220;2022-08-20T10:14:43;6.30;;;5.47;;
11058;SDS011;5582;59.272;15.220;2022-08-20T10:17:09;5.90;;;5.40;;
11058;SDS011;5582;59.272;15.220;2022-08-20T10:19:34;5.93;;;5.40;;
11058;SDS011;5582;59.272;15.220;2022-08-20T10:22:00;7.67;;;5.30;;
11058;SDS011;5582;59.272;15.220;2022-08-20T10:24:26;6.93;;;4.70;;
11058;SDS011;5582;59.272;15.220;2022-08-20T10:26:53;5.67;;;4.57;;
11058;SDS011;5582;59.272;15.220;2022-08-20T10:29:23;5.47;;;4.97;;
11058;SDS011;5582;59.272;15.220;2022-08-20T10:31:49;5.40;;;4.90;;
11058;SDS011;5582;59.272;15.220;2022-08-20T10:34:15;5.43;;;4.93;;
11058;SDS011;5582;59.272;15.220;2022-08-20T10:36:41;5.07;;;4.60;;
11058;SDS011;5582;59.272;15.220;2022-08-20T10:39:07;5.23;;;4.73;;
11058;SDS011;5582;59.272;15.220;2022-08-20T10:41:33;4.47;;;4.07;;
11058;SDS011;5582;59.272;15.220;2022-08-20T10:43:59;6.40;;;4.33;;
11058;SDS011;5582;59.272;15.220;2022-08-20T10:46:24;5.63;;;4.90;;
11058;SDS011;5582;59.272;15.220;2022-08-20T10:48:50;4.27;;;3.97;;
11058;SDS011;5582;59.272;15.220;2022-08-20T10:51:16;4.70;;;4.30;;
11058;SDS011;5582;59.272;15.220;2022-08-20T10:53:42;4.43;;;4.03;;
11058;SDS011;5582;59.272;15.220;2022-08-20T10:56:07;4.00;;;3.70;;
11058;SDS011;5582;59.272;15.220;2022-08-20T10:58:33;4.17;;;3.77;;
11058;SDS011;5582;59.272;15.220;2022-08-20T11:00:58;4.53;;;4.13;;
11058;SDS011;5582;59.272;15.220;2022-08-20T11:03:24;4.00;;;3.70;;
11058;SDS011;5582;59.272;15.220;2022-08-20T11:05:50;4.40;;;3.97;;
11058;SDS011;5582;59.272;15.220;2022-08-20T11:08:15;4.73;;;4.23;;
11058;SDS011;5582;59.272;15.220;2022-08-20T11:10:41;4.63;;;4.23;;
11058;SDS011;5582;59.272;15.220;2022-08-20T11:13:07;6.17;;;4.10;;
11058;SDS011;5582;59.272;15.220;2022-08-20T11:15:37;5.17;;;3.87;;
11058;SDS011;5582;59.272;15.220;2022-08-20T11:18:05;4.97;;;4.57;;
11058;SDS011;5582;59.272;15.220;2022-08-20T11:20:31;4.70;;;4.30;;
11058;SDS011;5582;59.272;15.220;2022-08-20T11:22:57;4.60;;;4.20;;
11058;SDS011;5582;59.272;15.220;2022-08-20T11:25:23;5.30;;;4.80;;
11058;SDS011;5582;59.272;15.220;2022-08-20T11:27:50;4.47;;;4.17;;
11058;SDS011;5582;59.272;15.220;2022-08-20T11:30:24;5.50;;;4.53;;
11058;SDS011;5582;59.272;15.220;2022-08-20T11:33:00;5.10;;;4.70;;
11058;SDS011;5582;59.272;15.220;2022-08-20T11:35:28;5.40;;;4.87;;
11058;SDS011;5582;59.272;15.220;2022-08-20T11:37:56;6.07;;;5.03;;
11058;SDS011;5582;59.272;15.220;2022-08-20T11:40:23;4.70;;;4.30;;
11058;SDS011;5582;59.272;15.220;2022-08-20T11:42:49;5.73;;;5.33;;
11058;SDS011;5582;59.272;15.220;2022-08-20T11:45:15;6.00;;;5.43;;
11058;SDS011;5582;59.272;15.220;2022-08-20T11:47:41;6.03;;;5.53;;
11058;SDS011;5582;59.272;15.220;2022-08-20T11:50:11;5.93;;;5.43;;
11058;SDS011;5582;59.272;15.220;2022-08-20T11:52:40;6.40;;;5.87;;
11058;SDS011;5582;59.272;15.220;2022-08-20T11:55:07;5.40;;;5.00;;
11058;SDS011;5582;59.272;15.220;2022-08-20T11:57:35;4.97;;;4.00;;
11058;SDS011;5582;59.272;15.220;2022-08-20T12:00:07;4.40;;;4.07;;
11058;SDS011;5582;59.272;15.220;2022-08-20T12:02:36;4.90;;;4.50;;
11058;SDS011;5582;59.272;15.220;2022-08-20T12:05:02;4.60;;;4.20;;
11058;SDS011;5582;59.272;15.220;2022-08-20T12:07:28;4.30;;;3.97;;
11058;SDS011;5582;59.272;15.220;2022-08-20T12:09:54;4.07;;;3.77;;
11058;SDS011;5582;59.272;15.220;2022-08-20T12:12:20;4.17;;;3.77;;
11058;SDS011;5582;59.272;15.220;2022-08-20T12:14:48;5.27;;;3.60;;
11058;SDS011;5582;59.272;15.220;2022-08-20T12:17:20;4.07;;;3.77;;
11058;SDS011;5582;59.272;15.220;2022-08-20T12:19:51;3.97;;;3.67;;
11058;SDS011;5582;59.272;15.220;2022-08-20T12:22:18;6.40;;;4.20;;
11058;SDS011;5582;59.272;15.220;2022-08-20T12:24:45;4.20;;;3.80;;
11058;SDS011;5582;59.272;15.220;2022-08-20T12:27:21;5.07;;;4.23;;
11058;SDS011;5582;59.272;15.220;2022-08-20T12:29:53;5.47;;;4.30;;
11058;SDS011;5582;59.272;15.220;2022-08-20T12:32:20;4.00;;;3.70;;
11058;SDS011;5582;59.272;15.220;2022-08-20T12:34:47;4.70;;;4.27;;
11058;SDS011;5582;59.272;15.220;2022-08-20T12:37:15;4.83;;;4.30;;
11058;SDS011;5582;59.272;15.220;2022-08-20T12:39:45;5.53;;;4.30;;
11058;SDS011;5582;59.272;15.220;2022-08-20T12:42:13;4.77;;;3.97;;
11058;SDS011;5582;59.272;15.220;2022-08-20T12:44:40;4.43;;;4.03;;
11058;SDS011;5582;59.272;15.220;2022-08-20T12:47:14;3.43;;;3.23;;
11058;SDS011;5582;59.272;15.220;2022-08-20T12:49:43;3.83;;;3.43;;
11058;SDS011;5582;59.272;15.220;2022-08-20T12:52:11;5.57;;;3.63;;
11058;SDS011;5582;59.272;15.220;2022-08-20T12:54:38;3.60;;;3.30;;
11058;SDS011;5582;59.272;15.220;2022-08-20T12:57:03;3.07;;;2.87;;
11058;SDS011;5582;59.272;15.220;2022-08-20T12:59:29;3.30;;;2.67;;
11058;SDS011;5582;59.272;15.220;2022-08-20T13:01:55;4.23;;;2.47;;
11058;SDS011;5582;59.272;15.220;2022-08-20T13:04:21;3.17;;;2.30;;
11058;SDS011;5582;59.272;15.220;2022-08-20T13:06:46;1.70;;;1.60;;
11058;SDS011;5582;59.272;15.220;2022-08-20T13:09:13;1.57;;;1.47;;
11058;SDS011;5582;59.272;15.220;2022-08-20T13:11:39;1.50;;;1.40;;
11058;SDS011;5582;59.272;15.220;2022-08-20T13:14:05;1.53;;;1.43;;
11058;SDS011;5582;59.272;15.220;2022-08-20T13:16:30;1.47;;;1.10;;
11058;SDS011;5582;59.272;15.220;2022-08-20T13:18:56;3.77;;;1.77;;
11058;SDS011;5582;59.272;15.220;2022-08-20T13:21:22;1.27;;;1.10;;
11058;SDS011;5582;59.272;15.220;2022-08-20T13:23:47;1.30;;;0.90;;
11058;SDS011;5582;59.272;15.220;2022-08-20T13:26:13;2.07;;;1.13;;
11058;SDS011;5582;59.272;15.220;2022-08-20T13:28:39;1.57;;;1.20;;
11058;SDS011;5582;59.272;15.220;2022-08-20T13:31:05;2.70;;;1.17;;
11058;SDS011;5582;59.272;15.220;2022-08-20T13:33:30;1.67;;;1.10;;
11058;SDS011;5582;59.272;15.220;2022-08-20T13:35:56;4.90;;;0.90;;
11058;SDS011;5582;59.272;15.220;2022-08-20T13:38:22;1.17;;;0.83;;
11058;SDS011;5582;59.272;15.220;2022-08-20T13:40:48;0.93;;;0.77;;
11058;SDS011;5582;59.272;15.220;2022-08-20T13:43:14;3.20;;;0.70;;
11058;SDS011;5582;59.272;15.220;2022-08-20T13:45:40;1.17;;;0.90;;
11058;SDS011;5582;59.272;15.220;2022-08-20T13:48:06;1.20;;;0.87;;
11058;SDS011;5582;59.272;15.220;2022-08-20T13:50:32;0.80;;;0.70;;
11058;SDS011;5582;59.272;15.220;2022-08-20T13:52:59;2.30;;;1.20;;
11058;SDS011;5582;59.272;15.220;2022-08-20T13:55:26;3.10;;;1.00;;
11058;SDS011;5582;59.272;15.220;2022-08-20T13:57:53;1.43;;;1.00;;
11058;SDS011;5582;59.272;15.220;2022-08-20T14:00:24;1.63;;;1.10;;
11058;SDS011;5582;59.272;15.220;2022-08-20T14:02:53;1.03;;;0.97;;
11058;SDS011;5582;59.272;15.220;2022-08-20T14:05:19;1.20;;;1.10;;
11058;SDS011;5582;59.272;15.220;2022-08-20T14:07:45;1.77;;;1.07;;
11058;SDS011;5582;59.272;15.220;2022-08-20T14:10:13;3.33;;;1.10;;
11058;SDS011;5582;59.272;15.220;2022-08-20T14:12:44;1.63;;;1.10;;
11058;SDS011;5582;59.272;15.220;2022-08-20T14:15:10;1.53;;;1.20;;
11058;SDS011;5582;59.272;15.220;2022-08-20T14:17:37;2.40;;;1.00;;
11058;SDS011;5582;59.272;15.220;2022-08-20T14:20:10;1.17;;;0.83;;
11058;SDS011;5582;59.272;15.220;2022-08-20T14:22:38;2.53;;;0.83;;
11058;SDS011;5582;59.272;15.220;2022-08-20T14:25:05;2.57;;;0.80;;
11058;SDS011;5582;59.272;15.220;2022-08-20T14:27:32;1.27;;;1.00;;
11058;SDS011;5582;59.272;15.220;2022-08-20T14:29:59;1.53;;;1.23;;
11058;SDS011;5582;59.272;15.220;2022-08-20T14:32:25;3.17;;;1.40;;
11058;SDS011;5582;59.272;15.220;2022-08-20T14:34:52;2.23;;;1.07;;
11058;SDS011;5582;59.272;15.220;2022-08-20T14:37:22;1.87;;;1.13;;
11058;SDS011;5582;59.272;15.220;2022-08-20T14:39:53;4.27;;;1.20;;
11058;SDS011;5582;59.272;15.220;2022-08-20T14:42:21;5.07;;;1.10;;
11058;SDS011;5582;59.272;15.220;2022-08-20T14:44:48;1.47;;;0.80;;
11058;SDS011;5582;59.272;15.220;2022-08-20T14:47:19;2.90;;;1.00;;
11058;SDS011;5582;59.272;15.220;2022-08-20T14:49:53;4.87;;;1.50;;
11058;SDS011;5582;59.272;15.220;2022-08-20T14:52:21;2.20;;;1.20;;
11058;SDS011;5582;59.272;15.220;2022-08-20T14:54:47;2.03;;;0.90;;
11058;SDS011;5582;59.272;15.220;2022-08-20T14:57:14;2.30;;;1.10;;
11058;SDS011;5582;59.272;15.220;2022-08-20T14:59:41;3.13;;;1.20;;
11058;SDS011;5582;59.272;15.220;2022-08-20T15:02:08;5.83;;;1.40;;
11058;SDS011;5582;59.272;15.220;2022-08-20T15:04:37;2.37;;;0.93;;
11058;SDS011;5582;59.272;15.220;2022-08-20T15:07:04;2.93;;;1.20;;
11058;SDS011;5582;59.272;15.220;2022-08-20T15:09:31;3.37;;;1.10;;
11058;SDS011;5582;59.272;15.220;2022-08-20T15:11:58;4.13;;;1.53;;
11058;SDS011;5582;59.272;15.220;2022-08-20T15:14:24;3.07;;;1.50;;
11058;SDS011;5582;59.272;15.220;2022-08-20T15:16:51;4.83;;;1.60;;
11058;SDS011;5582;59.272;15.220;2022-08-20T15:19:18;4.07;;;1.73;;
11058;SDS011;5582;59.272;15.220;2022-08-20T15:21:44;5.77;;;1.80;;
11058;SDS011;5582;59.272;15.220;2022-08-20T15:24:10;4.30;;;1.97;;
11058;SDS011;5582;59.272;15.220;2022-08-20T15:26:35;3.47;;;1.70;;
11058;SDS011;5582;59.272;15.220;2022-08-20T15:29:01;4.00;;;1.33;;
11058;SDS011;5582;59.272;15.220;2022-08-20T15:31:27;3.70;;;1.40;;
11058;SDS011;5582;59.272;15.220;2022-08-20T15:33:52;4.30;;;1.27;;
11058;SDS011;5582;59.272;15.220;2022-08-20T15:36:18;4.13;;;1.23;;
11058;SDS011;5582;59.272;15.220;2022-08-20T15:38:44;4.23;;;1.70;;
11058;SDS011;5582;59.272;15.220;2022-08-20T15:41:10;3.83;;;1.30;;
11058;SDS011;5582;59.272;15.220;2022-08-20T15:43:35;4.97;;;1.67;;
11058;SDS011;5582;59.272;15.220;2022-08-20T15:46:03;3.87;;;1.20;;
11058;SDS011;5582;59.272;15.220;2022-08-20T15:48:31;4.10;;;1.37;;
11058;SDS011;5582;59.272;15.220;2022-08-20T16:01:31;6.93;;;1.43;;
11058;SDS011;5582;59.272;15.220;2022-08-20T16:04:27;5.70;;;1.67;;
11058;SDS011;5582;59.272;15.220;2022-08-20T16:07:13;4.20;;;1.33;;
11058;SDS011;5582;59.272;15.220;2022-08-20T16:09:50;6.70;;;2.20;;
11058;SDS011;5582;59.272;15.220;2022-08-20T16:12:33;3.70;;;1.50;;
11058;SDS011;5582;59.272;15.220;2022-08-20T16:15:03;2.93;;;0.93;;
11058;SDS011;5582;59.272;15.220;2022-08-20T16:20:26;4.60;;;1.40;;
11058;SDS011;5582;59.272;15.220;2022-08-20T16:23:04;5.80;;;1.73;;
11058;SDS011;5582;59.272;15.220;2022-08-20T16:25:33;3.70;;;1.60;;
11058;SDS011;5582;59.272;15.220;2022-08-20T16:30:48;5.10;;;1.47;;
11058;SDS011;5582;59.272;15.220;2022-08-20T16:33:30;6.87;;;1.60;;
11058;SDS011;5582;59.272;15.220;2022-08-20T16:36:06;4.13;;;1.13;;
11058;SDS011;5582;59.272;15.220;2022-08-20T16:38:46;3.53;;;1.00;;
11058;SDS011;5582;59.272;15.220;2022-08-20T16:46:45;5.73;;;1.40;;
11058;SDS011;5582;59.272;15.220;2022-08-20T16:49:16;4.63;;;1.00;;
11058;SDS011;5582;59.272;15.220;2022-08-20T16:51:44;4.17;;;1.40;;
11058;SDS011;5582;59.272;15.220;2022-08-20T16:54:16;4.17;;;1.00;;
11058;SDS011;5582;59.272;15.220;2022-08-20T16:56:45;3.87;;;1.30;;
11058;SDS011;5582;59.272;15.220;2022-08-20T16:59:15;4.30;;;1.57;;
11058;SDS011;5582;59.272;15.220;2022-08-20T17:01:42;7.70;;;2.00;;
11058;SDS011;5582;59.272;15.220;2022-08-20T17:04:18;3.23;;;1.00;;
11058;SDS011;5582;59.272;15.220;2022-08-20T17:06:46;4.40;;;1.00;;
11058;SDS011;5582;59.272;15.220;2022-08-20T17:09:15;6.13;;;0.90;;
11058;SDS011;5582;59.272;15.220;2022-08-20T17:12:13;4.13;;;0.90;;
11058;SDS011;5582;59.272;15.220;2022-08-20T17:14:50;4.03;;;1.10;;
11058;SDS011;5582;59.272;15.220;2022-08-20T17:17:28;4.63;;;1.03;;
11058;SDS011;5582;59.272;15.220;2022-08-20T17:19:59;7.23;;;1.13;;
11058;SDS011;5582;59.272;15.220;2022-08-20T17:22:38;5.30;;;1.60;;
11058;SDS011;5582;59.272;15.220;2022-08-20T17:25:16;5.40;;;2.07;;
11058;SDS011;5582;59.272;15.220;2022-08-20T17:27:43;2.83;;;1.10;;
11058;SDS011;5582;59.272;15.220;2022-08-20T17:30:14;4.37;;;0.93;;
11058;SDS011;5582;59.272;15.220;2022-08-20T17:32:51;5.97;;;1.00;;
11058;SDS011;5582;59.272;15.220;2022-08-20T17:35:21;2.83;;;1.03;;
11058;SDS011;5582;59.272;15.220;2022-08-20T17:37:51;3.23;;;0.80;;
11058;SDS011;5582;59.272;15.220;2022-08-20T17:40:19;4.17;;;1.10;;
11058;SDS011;5582;59.272;15.220;2022-08-20T17:42:53;2.50;;;0.70;;
11058;SDS011;5582;59.272;15.220;2022-08-20T17:45:36;5.13;;;1.10;;
11058;SDS011;5582;59.272;15.220;2022-08-20T17:48:13;3.73;;;1.03;;
11058;SDS011;5582;59.272;15.220;2022-08-20T17:50:42;5.40;;;1.10;;
11058;SDS011;5582;59.272;15.220;2022-08-20T17:53:30;3.73;;;1.27;;
11058;SDS011;5582;59.272;15.220;2022-08-20T17:55:58;9.03;;;1.43;;
11058;SDS011;5582;59.272;15.220;2022-08-20T17:58:34;4.10;;;1.40;;
11058;SDS011;5582;59.272;15.220;2022-08-20T18:01:10;3.67;;;1.57;;
11058;SDS011;5582;59.272;15.220;2022-08-20T18:03:45;4.90;;;1.40;;
11058;SDS011;5582;59.272;15.220;2022-08-20T18:06:17;2.83;;;1.20;;
11058;SDS011;5582;59.272;15.220;2022-08-20T18:08:50;7.80;;;1.10;;
11058;SDS011;5582;59.272;15.220;2022-08-20T18:11:26;5.30;;;1.20;;
11058;SDS011;5582;59.272;15.220;2022-08-20T18:22:22;5.80;;;1.30;;
11058;SDS011;5582;59.272;15.220;2022-08-20T18:27:57;5.83;;;1.13;;